Ashville, New York
Current Conditions -  °F | °C
As of 11:35 AM on Monday 24 Nov 2014 (Local Time) from KJHW Reporting Station
Overcast Overcast  
Wind Chill: 61°   Ceiling: 5500
Heat Index: 61°   Visibility: 10mi
Dew Point: 48°   Wind: 15mph
Humidity: 63%   Direction: 200°SSW
Pressure: 29.33"   Gusts: 31mph
Location:  42.1°N, 79.38°W
Report Text: KJHW 241635Z AUTO 20013G27KT 10SM SCT040 BKN055 OVC075 16/09 A2933 RMK AO1
Loading
Personal Weather Stations






























Interactive Weather Map New forecast layout! Learn more

10-Day Weather Forecast

Advertisements
Track Severe Weather on mobile